Time;durP1;ratioP1;P1;durP2;ratioP2;P2;SDS_P1;SDS_P2;PMS_P1;PMS_P2;Temp;Humidity;BMP_temperature;BMP_pressure;BME280_temperature;BME280_humidity;BME280_pressure;Samples;Min_cycle;Max_cycle;Signal;HPM_P1;HPM_P2
2023/08/04 00:01:06;;;;;;;17.13;6.93;;;;;;;13.98;93.36;99733.78;10436532;28;20049;-77
2023/08/04 00:06:09;;;;;;;18.70;7.45;;;;;;;13.84;94.81;99724.44;10438305;28;20072;-77
2023/08/04 00:11:13;;;;;;;16.85;7.40;;;;;;;13.78;93.52;99725.94;10433531;28;20049;-77
2023/08/04 00:16:16;;;;;;;16.95;6.65;;;;;;;13.64;94.29;99730.09;10438225;28;20099;-76
2023/08/04 00:21:19;;;;;;;20.40;7.95;;;;;;;13.75;93.29;99741.63;10438136;28;20503;-76
2023/08/04 00:26:23;;;;;;;18.20;7.32;;;;;;;13.76;93.01;99743.28;10433490;28;20055;-77
2023/08/04 00:31:27;;;;;;;18.20;7.25;;;;;;;13.65;93.01;99750.66;10437579;28;21287;-77
2023/08/04 00:36:30;;;;;;;11.30;6.45;;;;;;;13.86;92.32;99754.84;10437063;28;20045;-77
2023/08/04 00:41:34;;;;;;;17.48;6.72;;;;;;;13.79;92.16;99759.16;10435530;28;20447;-77
2023/08/04 00:46:38;;;;;;;16.15;6.22;;;;;;;13.80;92.24;99771.69;10433116;28;20048;-77
2023/08/04 00:51:41;;;;;;;19.88;7.13;;;;;;;13.58;92.32;99767.66;10433154;28;20119;-77
2023/08/04 00:56:47;;;;;;;17.27;6.55;;;;;;;13.79;92.05;99775.34;10442909;28;20551;-77
2023/08/04 01:01:50;;;;;;;19.00;6.57;;;;;;;13.81;92.23;99776.91;10443297;28;20049;-77
2023/08/04 01:07:06;;;;;;;19.85;8.20;;;;;;;13.91;91.95;99793.00;10440835;28;20107;-76
2023/08/04 01:12:15;;;;;;;15.07;6.63;;;;;;;13.92;91.48;99795.53;10439920;28;20051;-76
2023/08/04 01:17:25;;;;;;;15.00;6.75;;;;;;;13.84;91.50;99797.31;10433845;28;21198;-76
2023/08/04 01:22:30;;;;;;;17.33;6.50;;;;;;;13.90;91.41;99802.94;10449234;28;20068;-77
2023/08/04 01:27:37;;;;;;;15.23;8.02;;;;;;;13.90;91.04;99808.34;10441122;28;20531;-76
2023/08/04 01:32:41;;;;;;;17.55;7.45;;;;;;;13.88;91.29;99818.47;10433835;28;20527;-76
2023/08/04 01:37:45;;;;;;;11.73;6.55;;;;;;;13.78;91.87;99806.06;10434724;28;20044;-76
2023/08/04 01:42:49;;;;;;;13.32;7.40;;;;;;;13.92;91.73;99822.50;10436387;28;20056;-76
2023/08/04 01:47:53;;;;;;;15.93;7.03;;;;;;;13.96;91.32;99831.16;10448008;28;20071;-76
2023/08/04 01:52:58;;;;;;;10.80;7.00;;;;;;;13.95;91.54;99829.44;10447921;28;20488;-76
2023/08/04 01:58:01;;;;;;;20.25;7.95;;;;;;;13.99;91.45;99832.66;10446835;28;20144;-75
2023/08/04 02:03:04;;;;;;;15.40;6.57;;;;;;;13.95;91.18;99840.25;10447101;28;21166;-76
2023/08/04 02:08:08;;;;;;;8.57;6.15;;;;;;;14.03;91.36;99837.59;10451739;28;20075;-74
2023/08/04 02:13:11;;;;;;;13.88;5.60;;;;;;;13.84;91.72;99837.81;10447808;28;20056;-77
2023/08/04 02:18:13;;;;;;;16.10;7.13;;;;;;;13.90;91.69;99843.44;10445246;28;20052;-77
2023/08/04 02:23:18;;;;;;;14.20;7.57;;;;;;;13.55;92.38;99846.19;10439427;28;20527;-76
2023/08/04 02:28:21;;;;;;;15.40;6.40;;;;;;;13.56;92.16;99834.44;10440382;28;21179;-76
2023/08/04 02:33:24;;;;;;;15.63;7.45;;;;;;;13.52;93.59;99839.31;10443614;28;20128;-77
2023/08/04 02:38:28;;;;;;;24.73;7.85;;;;;;;13.44;93.21;99850.88;10443223;28;20044;-76
2023/08/04 02:43:31;;;;;;;13.43;8.68;;;;;;;13.51;93.20;99851.06;10444745;28;20040;-77
2023/08/04 02:48:34;;;;;;;14.23;8.35;;;;;;;13.59;92.71;99853.84;10452186;28;20418;-76
2023/08/04 02:53:41;;;;;;;15.40;8.00;;;;;;;13.66;91.88;99862.19;10451158;28;20055;-77
2023/08/04 02:58:45;;;;;;;12.88;8.38;;;;;;;13.83;91.66;99846.94;10448000;28;20064;-76
2023/08/04 03:03:47;;;;;;;15.90;8.77;;;;;;;13.47;93.92;99855.94;10443784;28;20044;-76
2023/08/04 03:08:51;;;;;;;18.77;9.35;;;;;;;13.57;93.17;99860.38;10442894;28;20083;-76
2023/08/04 03:13:54;;;;;;;18.65;9.18;;;;;;;13.60;92.53;99877.16;10439351;28;20059;-76
2023/08/04 03:18:57;;;;;;;24.00;9.95;;;;;;;13.81;91.73;99873.22;10437364;28;20291;-76
2023/08/04 03:24:01;;;;;;;15.43;8.60;;;;;;;13.80;91.49;99882.34;10439218;28;20052;-77
2023/08/04 03:29:04;;;;;;;16.02;8.75;;;;;;;13.81;91.73;99892.97;10436485;28;20041;-76
2023/08/04 03:34:07;;;;;;;17.20;10.07;;;;;;;13.87;91.38;99905.84;10434284;28;20049;-76
2023/08/04 03:39:11;;;;;;;15.50;8.23;;;;;;;13.61;91.82;99910.38;10436819;28;20068;-76
2023/08/04 03:44:14;;;;;;;16.48;8.93;;;;;;;13.62;92.29;99909.34;10433571;28;20049;-76
2023/08/04 03:49:17;;;;;;;13.55;9.68;;;;;;;13.63;93.48;99906.50;10440423;28;20060;-76
2023/08/04 03:54:21;;;;;;;20.35;10.30;;;;;;;13.51;93.47;99910.44;10442346;28;20048;-76
2023/08/04 03:59:24;;;;;;;23.92;9.85;;;;;;;13.73;91.76;99917.19;10440984;28;20049;-76
2023/08/04 04:04:27;;;;;;;19.52;9.23;;;;;;;13.81;92.37;99911.88;10434061;28;20047;-76
2023/08/04 04:09:31;;;;;;;15.18;9.35;;;;;;;13.82;91.82;99912.72;10433752;28;20044;-76
2023/08/04 04:14:34;;;;;;;16.35;9.48;;;;;;;13.96;90.54;99927.50;10436055;28;20052;-75
2023/08/04 04:19:37;;;;;;;23.08;10.25;;;;;;;14.07;90.21;99924.53;10436215;28;20063;-75
2023/08/04 04:24:41;;;;;;;17.15;9.60;;;;;;;14.01;90.50;99934.13;10436744;28;20048;-75
2023/08/04 04:29:44;;;;;;;18.75;8.45;;;;;;;14.00;90.63;99940.53;10433661;28;20056;-76
2023/08/04 04:34:47;;;;;;;19.80;9.23;;;;;;;14.00;90.79;99934.28;10439095;28;20128;-75
2023/08/04 04:39:51;;;;;;;16.20;8.85;;;;;;;14.16;89.78;99935.25;10438212;28;20059;-76
2023/08/04 04:44:56;;;;;;;18.70;9.55;;;;;;;14.07;89.81;99949.72;10437383;28;20047;-75
2023/08/04 04:49:59;;;;;;;18.42;7.55;;;;;;;13.98;90.58;99945.22;10440102;28;20689;-75
2023/08/04 04:55:03;;;;;;;20.63;9.82;;;;;;;14.12;90.38;99935.72;10439313;28;20049;-76
2023/08/04 05:00:07;;;;;;;15.38;9.43;;;;;;;14.06;91.26;99947.16;10440380;28;20187;-76
2023/08/04 05:05:11;;;;;;;17.23;8.93;;;;;;;14.47;89.17;99947.47;10440780;28;20114;-75
2023/08/04 05:10:15;;;;;;;13.95;9.05;;;;;;;14.42;89.23;99950.63;10435568;28;20064;-76
2023/08/04 05:15:18;;;;;;;16.45;8.88;;;;;;;14.48;88.92;99954.53;10434824;28;20546;-75
2023/08/04 05:20:21;;;;;;;17.35;9.18;;;;;;;14.64;88.26;99949.22;10436616;28;20045;-75
2023/08/04 05:25:25;;;;;;;18.73;9.90;;;;;;;14.97;87.74;99954.78;10437047;28;20056;-74
2023/08/04 05:30:28;;;;;;;25.75;11.63;;;;;;;14.94;87.55;99966.75;10439144;28;20059;-75
2023/08/04 05:35:31;;;;;;;19.15;9.48;;;;;;;14.56;88.33;99966.28;10434602;28;20115;-76
2023/08/04 05:40:36;;;;;;;18.40;8.43;;;;;;;14.48;88.22;99976.16;10432218;28;20501;-75
2023/08/04 05:45:43;;;;;;;16.83;9.25;;;;;;;14.91;86.75;99983.31;10431283;28;20059;-76
2023/08/04 05:50:46;;;;;;;13.80;9.63;;;;;;;15.37;85.89;99977.59;10427139;28;20492;-76
2023/08/04 05:55:51;;;;;;;18.10;8.82;;;;;;;15.21;84.05;99989.19;10431964;28;20041;-76
2023/08/04 06:00:54;;;;;;;20.25;9.32;;;;;;;15.39;83.65;99984.53;10429390;28;20422;-76
2023/08/04 06:05:56;;;;;;;16.13;8.50;;;;;;;15.51;84.34;99989.66;10430386;28;20125;-76
2023/08/04 06:11:01;;;;;;;12.80;7.57;;;;;;;15.31;83.91;99992.63;10436515;28;20055;-76
2023/08/04 06:16:04;;;;;;;10.23;7.13;;;;;;;15.46;83.50;99993.69;10429245;28;20393;-76
2023/08/04 06:21:07;;;;;;;14.40;6.57;;;;;;;15.88;81.73;99994.63;10432222;28;20049;-76
2023/08/04 06:26:11;;;;;;;11.63;7.05;;;;;;;15.73;82.42;100002.53;10434315;28;20060;-75
2023/08/04 06:31:14;;;;;;;12.80;7.47;;;;;;;15.98;81.17;100002.56;10435460;28;20052;-75
2023/08/04 06:36:17;;;;;;;16.58;6.65;;;;;;;15.52;83.20;100011.13;10438548;28;20775;-74
2023/08/04 06:41:21;;;;;;;14.18;5.97;;;;;;;15.75;82.39;100008.63;10439493;28;20112;-74
2023/08/04 06:46:25;;;;;;;11.75;6.72;;;;;;;15.95;80.84;100011.88;10441838;28;20504;-74
2023/08/04 06:51:28;;;;;;;15.13;6.50;;;;;;;15.90;81.58;100012.34;10436967;28;20049;-74
2023/08/04 07:02:03;;;;;;;10.05;5.40;;;;;;;16.18;80.06;100039.16;10438815;23;20675;-77
2023/08/04 07:07:06;;;;;;;10.65;5.35;;;;;;;16.31;79.31;100035.94;10161303;29;20047;-76
2023/08/04 07:12:09;;;;;;;8.48;4.63;;;;;;;16.40;78.38;100045.78;10164420;29;20095;-78
2023/08/04 07:17:13;;;;;;;8.70;4.78;;;;;;;16.73;77.59;100045.72;10167862;29;20452;-76
2023/08/04 07:22:16;;;;;;;7.88;4.35;;;;;;;16.50;77.99;100046.44;10170391;29;20055;-76
2023/08/04 07:27:19;;;;;;;8.15;4.50;;;;;;;17.21;77.20;100049.34;10171652;29;20059;-76
2023/08/04 07:32:23;;;;;;;7.68;3.90;;;;;;;17.38;74.93;100056.38;10165368;29;20115;-76
2023/08/04 07:37:26;;;;;;;7.22;3.25;;;;;;;16.79;76.33;100058.59;10169548;29;20423;-76
2023/08/04 07:42:29;;;;;;;7.47;3.50;;;;;;;16.43;77.88;100060.84;10162495;29;20044;-78
2023/08/04 07:47:33;;;;;;;11.18;3.85;;;;;;;15.97;78.67;100066.72;10176842;29;20048;-78
2023/08/04 07:52:36;;;;;;;7.40;3.95;;;;;;;16.73;76.95;100067.41;10173542;29;20044;-76
2023/08/04 07:57:39;;;;;;;6.18;3.17;;;;;;;17.81;73.71;100064.97;10155632;29;20404;-76
2023/08/04 08:02:43;;;;;;;6.90;2.60;;;;;;;18.32;69.79;100059.03;10150070;29;20048;-75
2023/08/04 08:07:46;;;;;;;7.38;2.38;;;;;;;18.58;67.26;100070.34;10121749;29;20044;-76
2023/08/04 08:12:49;;;;;;;6.35;2.30;;;;;;;19.46;65.23;100076.91;10122187;29;20419;-76
2023/08/04 08:17:53;;;;;;;6.55;2.35;;;;;;;18.81;64.98;100074.94;10128406;28;20044;-76
2023/08/04 08:22:56;;;;;;;5.43;1.95;;;;;;;18.33;67.28;100066.19;10130852;28;20048;-75
2023/08/04 08:27:59;;;;;;;5.93;1.90;;;;;;;17.78;67.24;100087.09;10128366;29;20049;-76
2023/08/04 08:33:03;;;;;;;2.60;1.92;;;;;;;18.30;66.89;100080.97;10128277;29;20044;-76
2023/08/04 08:38:06;;;;;;;4.90;1.75;;;;;;;18.17;66.12;100091.59;10121045;29;20524;-77
2023/08/04 08:43:09;;;;;;;5.95;2.30;;;;;;;18.61;66.71;100096.34;10125167;29;20052;-77
2023/08/04 08:48:14;;;;;;;4.68;2.00;;;;;;;17.89;64.27;100097.53;10113753;29;20052;-77
2023/08/04 08:53:22;;;;;;;3.60;1.73;;;;;;;18.94;65.83;100096.06;10118529;28;20503;-77
2023/08/04 08:58:27;;;;;;;6.90;1.90;;;;;;;19.52;60.30;100097.09;10124398;28;20059;-77
2023/08/04 09:03:35;;;;;;;3.80;1.40;;;;;;;20.10;58.95;100094.44;10125747;29;20056;-77
2023/08/04 09:08:38;;;;;;;2.08;1.08;;;;;;;19.39;60.48;100100.50;10120386;29;20052;-77
2023/08/04 09:13:42;;;;;;;2.40;1.20;;;;;;;19.72;59.69;100110.13;10122499;29;20059;-77
2023/08/04 09:18:46;;;;;;;3.22;1.52;;;;;;;18.96;60.99;100116.63;10125433;28;20075;-77
2023/08/04 09:23:51;;;;;;;2.47;1.33;;;;;;;18.75;63.42;100122.72;10124364;28;20051;-77
2023/08/04 09:29:04;;;;;;;1.95;1.20;;;;;;;18.77;61.67;100126.13;10115549;29;20055;-75
2023/08/04 09:34:10;;;;;;;4.25;1.35;;;;;;;18.64;62.79;100130.50;10123212;29;20059;-77
2023/08/04 09:39:13;;;;;;;3.85;1.13;;;;;;;19.23;60.79;100120.59;10125387;28;20122;-78
2023/08/04 09:44:16;;;;;;;2.85;1.15;;;;;;;20.00;58.04;100113.84;10124624;28;21450;-78
2023/08/04 09:49:21;;;;;;;3.20;0.80;;;;;;;20.48;55.76;100119.59;10125530;28;20688;-78
2023/08/04 09:54:24;;;;;;;4.38;1.20;;;;;;;19.83;57.74;100115.13;10129477;29;20044;-78
2023/08/04 09:59:28;;;;;;;1.70;0.90;;;;;;;20.08;56.84;100111.00;10128623;29;20131;-77
2023/08/04 10:04:33;;;;;;;2.80;0.88;;;;;;;19.96;57.86;100120.69;10129204;29;20055;-76
2023/08/04 10:09:37;;;;;;;1.58;0.85;;;;;;;20.58;56.53;100121.16;10130803;29;20051;-75
2023/08/04 10:14:40;;;;;;;4.38;1.48;;;;;;;21.29;55.21;100127.41;10130892;28;20519;-76
2023/08/04 10:19:45;;;;;;;3.63;1.38;;;;;;;22.40;52.82;100115.41;10127510;29;21162;-76
2023/08/04 10:24:47;;;;;;;2.15;1.05;;;;;;;21.09;54.19;100124.53;10120071;29;20504;-76
2023/08/04 10:30:10;;;;;;;4.20;0.80;;;;;;;19.79;56.54;100124.69;10124938;29;20427;-75
2023/08/04 10:35:19;;;;;;;3.70;1.02;;;;;;;19.69;58.73;100133.16;10131874;29;20066;-76
2023/08/04 10:40:29;;;;;;;3.03;1.13;;;;;;;20.05;58.58;100132.34;10123097;28;20056;-76
2023/08/04 10:45:52;;;;;;;3.60;0.90;;;;;;;21.03;56.38;100133.47;10125452;28;20054;-76
2023/08/04 10:50:57;;;;;;;4.40;1.40;;;;;;;20.85;55.76;100139.44;10119233;29;20052;-77
2023/08/04 10:56:01;;;;;;;2.63;1.23;;;;;;;20.90;56.33;100149.75;10123815;29;20063;-78
2023/08/04 11:01:04;;;;;;;3.13;1.30;;;;;;;21.25;55.39;100147.94;10129036;29;20052;-77
2023/08/04 11:06:08;;;;;;;2.80;1.25;;;;;;;21.86;54.23;100139.06;10130423;29;20103;-78
2023/08/04 11:11:11;;;;;;;3.72;1.10;;;;;;;22.22;52.63;100133.28;10137105;28;20056;-77
2023/08/04 11:16:17;;;;;;;1.38;0.80;;;;;;;22.13;50.96;100142.69;10134764;29;20060;-77
2023/08/04 11:21:21;;;;;;;1.35;0.90;;;;;;;22.06;51.41;100142.69;10127686;29;20474;-78
2023/08/04 11:26:25;;;;;;;1.50;1.02;;;;;;;22.44;52.23;100144.09;10122787;29;20079;-77
2023/08/04 11:31:28;;;;;;;1.88;1.40;;;;;;;22.69;50.62;100136.09;10121752;29;20194;-77
2023/08/04 11:36:32;;;;;;;1.80;1.23;;;;;;;21.63;52.21;100142.06;10117203;28;20130;-77
2023/08/04 11:41:36;;;;;;;1.83;1.10;;;;;;;21.81;52.00;100145.13;10113711;29;20063;-77
2023/08/04 11:46:39;;;;;;;1.73;0.98;;;;;;;24.07;48.22;100133.28;10123436;29;20056;-75
2023/08/04 11:51:45;;;;;;;3.08;0.98;;;;;;;24.36;48.42;100136.50;10120604;29;20044;-76
2023/08/04 11:56:53;;;;;;;2.88;1.80;;;;;;;23.58;46.60;100145.69;10153257;29;20043;-76
2023/08/04 12:02:06;;;;;;;1.58;0.60;;;;;;;23.15;46.54;100143.50;10141054;28;20062;-76
2023/08/04 12:07:12;;;;;;;2.13;0.82;;;;;;;22.57;49.34;100144.06;10127072;28;20689;-76
2023/08/04 12:12:15;;;;;;;2.70;0.93;;;;;;;24.64;46.55;100141.59;10121546;29;20076;-76
2023/08/04 12:17:18;;;;;;;1.40;0.70;;;;;;;24.26;44.10;100151.53;10123750;29;20067;-77
2023/08/04 12:22:22;;;;;;;2.05;0.80;;;;;;;23.56;45.24;100153.28;10118181;29;20052;-76
2023/08/04 12:27:25;;;;;;;1.80;0.60;;;;;;;25.06;44.54;100153.72;10124578;28;20449;-76
2023/08/04 12:32:28;;;;;;;0.77;0.60;;;;;;;24.93;44.08;100156.56;10115942;28;20059;-76
2023/08/04 12:37:32;;;;;;;0.65;0.40;;;;;;;26.82;40.33;100145.59;10114100;29;20151;-76
2023/08/04 12:42:36;;;;;;;0.75;0.43;;;;;;;27.34;39.25;100137.47;10110802;29;20091;-76
2023/08/04 12:47:39;;;;;;;1.20;0.40;;;;;;;23.15;43.61;100154.44;10116999;29;20048;-77
2023/08/04 12:52:43;;;;;;;1.20;0.63;;;;;;;23.48;44.06;100150.78;10125845;29;20070;-76
2023/08/04 12:57:46;;;;;;;0.40;0.38;;;;;;;25.37;42.73;100147.31;10122646;29;20130;-76
2023/08/04 13:02:49;;;;;;;0.82;0.30;;;;;;;27.02;38.08;100141.69;10116093;29;20150;-76
2023/08/04 13:07:53;;;;;;;1.55;0.35;;;;;;;27.81;38.42;100150.34;10113265;29;20059;-77
2023/08/04 13:12:57;;;;;;;0.70;0.32;;;;;;;28.31;37.07;100141.44;10123620;29;20044;-75
2023/08/04 13:18:00;;;;;;;0.50;0.50;;;;;;;25.76;39.58;100145.19;10119430;29;20044;-76
2023/08/04 13:23:04;;;;;;;1.17;0.30;;;;;;;24.63;41.86;100149.00;10121277;28;20050;-77
2023/08/04 13:28:07;;;;;;;0.43;0.43;;;;;;;24.54;43.48;100145.66;10132354;28;20044;-76
2023/08/04 13:33:10;;;;;;;0.88;0.30;;;;;;;25.77;42.12;100140.53;10127606;28;20048;-76
2023/08/04 13:38:15;;;;;;;0.40;0.30;;;;;;;26.37;39.83;100142.50;10156456;29;20052;-76
2023/08/04 13:43:17;;;;;;;0.73;0.40;;;;;;;25.81;40.58;100150.84;10152203;29;20060;-77
2023/08/04 13:48:20;;;;;;;1.15;0.65;;;;;;;23.87;43.98;100153.41;10138213;29;20075;-76
2023/08/04 13:53:25;;;;;;;1.20;0.60;;;;;;;22.93;46.96;100162.84;10141322;28;20048;-78
2023/08/04 13:58:28;;;;;;;0.68;0.60;;;;;;;22.43;48.03;100153.28;10147538;29;20086;-77
2023/08/04 14:03:31;;;;;;;1.08;0.65;;;;;;;22.27;48.26;100158.13;10146746;29;20051;-74
2023/08/04 14:08:35;;;;;;;1.55;0.70;;;;;;;21.93;48.67;100159.06;10133209;29;20070;-76
2023/08/04 14:13:39;;;;;;;1.38;0.65;;;;;;;22.36;49.00;100147.00;10138823;29;20063;-77
2023/08/04 14:18:42;;;;;;;0.77;0.47;;;;;;;22.69;47.20;100138.84;10127813;28;20063;-76
2023/08/04 14:23:46;;;;;;;2.35;0.65;;;;;;;22.99;48.08;100142.00;10131322;28;20403;-75
2023/08/04 14:28:50;;;;;;;1.27;0.52;;;;;;;24.46;44.06;100131.38;10127370;29;21414;-76
2023/08/04 14:33:53;;;;;;;0.73;0.50;;;;;;;25.55;42.04;100140.13;10122986;29;20048;-76
2023/08/04 14:38:57;;;;;;;0.93;0.60;;;;;;;23.77;44.13;100141.22;10127805;29;20415;-75
2023/08/04 14:44:00;;;;;;;0.98;0.60;;;;;;;24.43;46.77;100146.38;10124864;28;20052;-77
2023/08/04 14:49:04;;;;;;;1.10;0.60;;;;;;;25.28;42.74;100142.31;10121874;29;20182;-76
2023/08/04 14:54:08;;;;;;;0.73;0.73;;;;;;;26.37;41.69;100148.00;10133307;29;20055;-77
2023/08/04 14:59:11;;;;;;;1.17;0.60;;;;;;;26.66;40.64;100127.84;10124913;29;20056;-77
2023/08/04 15:04:14;;;;;;;0.88;0.50;;;;;;;24.89;43.60;100134.19;10124542;29;20062;-77
2023/08/04 15:09:19;;;;;;;0.50;0.45;;;;;;;23.41;46.26;100137.94;10125710;28;20052;-75
2023/08/04 15:14:23;;;;;;;1.65;0.70;;;;;;;22.96;47.06;100142.44;10137126;29;20059;-75
2023/08/04 15:19:26;;;;;;;2.55;0.80;;;;;;;22.61;49.31;100159.03;10140215;29;20060;-75
2023/08/04 15:24:30;;;;;;;4.57;0.90;;;;;;;22.01;55.08;100172.53;10141300;29;20067;-76
2023/08/04 15:29:34;;;;;;;7.20;2.40;;;;;;;16.92;88.95;100218.97;10140633;29;20056;-79
2023/08/04 15:34:37;;;;;;;12.80;3.00;;;;;;;14.90;100.00;100235.00;10131352;28;20079;-75
2023/08/04 15:39:41;;;;;;;8.55;3.30;;;;;;;15.12;100.00;100228.25;10134190;28;20036;-75
2023/08/04 15:44:44;;;;;;;7.10;3.50;;;;;;;15.40;100.00;100240.63;10132636;28;20052;-76
2023/08/04 15:49:47;;;;;;;6.13;3.05;;;;;;;15.20;100.00;100239.97;10126590;29;20539;-76
2023/08/04 15:54:52;;;;;;;5.47;3.70;;;;;;;15.43;100.00;100236.75;10129978;29;20135;-77
2023/08/04 16:00:13;;;;;;;4.13;2.60;;;;;;;15.22;100.00;100237.97;10136397;29;20058;-77
2023/08/04 16:05:16;;;;;;;3.25;2.95;;;;;;;15.34;100.00;100241.28;10136378;28;20055;-77
2023/08/04 16:10:22;;;;;;;2.50;1.95;;;;;;;15.34;100.00;100243.97;10129028;28;20422;-77
2023/08/04 16:15:25;;;;;;;2.75;2.33;;;;;;;15.68;100.00;100243.16;10134436;29;20052;-77
2023/08/04 16:20:28;;;;;;;3.20;2.17;;;;;;;15.99;100.00;100248.91;10129875;29;20051;-77
2023/08/04 16:25:32;;;;;;;5.18;2.38;;;;;;;16.46;100.00;100259.25;10149986;29;20052;-78
2023/08/04 16:30:35;;;;;;;1.88;1.77;;;;;;;16.79;100.00;100251.19;10121977;29;20074;-78
2023/08/04 16:35:38;;;;;;;2.30;1.80;;;;;;;16.76;99.68;100255.06;10127485;29;20134;-79
2023/08/04 16:40:42;;;;;;;3.22;2.30;;;;;;;16.25;97.91;100267.78;10132925;29;20044;-78
2023/08/04 16:45:45;;;;;;;2.70;1.88;;;;;;;16.25;99.68;100266.94;10140869;29;20052;-78
2023/08/04 16:50:48;;;;;;;3.28;2.20;;;;;;;16.22;99.35;100265.41;10128682;29;20063;-78
2023/08/04 16:55:53;;;;;;;2.70;2.10;;;;;;;16.17;99.17;100280.47;10132643;28;20048;-78
2023/08/04 17:00:56;;;;;;;2.38;1.98;;;;;;;16.21;99.08;100280.00;10133399;29;20056;-78
2023/08/04 17:05:59;;;;;;;4.43;2.38;;;;;;;16.30;99.39;100281.75;10176988;29;20068;-78
2023/08/04 17:11:03;;;;;;;3.55;2.60;;;;;;;16.41;99.62;100264.31;10151120;29;20052;-78
2023/08/04 17:16:10;;;;;;;4.75;2.55;;;;;;;16.53;99.91;100271.13;10159377;29;20052;-77
2023/08/04 17:21:15;;;;;;;3.22;2.25;;;;;;;16.66;100.00;100265.22;10146269;28;20067;-78
2023/08/04 17:26:20;;;;;;;4.07;2.38;;;;;;;16.78;100.00;100265.75;10144203;29;20055;-80
2023/08/04 17:31:23;;;;;;;2.53;2.03;;;;;;;16.97;100.00;100257.28;10138875;28;20059;-80
2023/08/04 17:36:26;;;;;;;2.50;2.30;;;;;;;17.12;100.00;100270.19;10140322;28;20165;-79
2023/08/04 17:41:30;;;;;;;2.35;1.98;;;;;;;17.19;100.00;100260.34;10136632;29;20577;-78
2023/08/04 17:46:33;;;;;;;4.78;2.55;;;;;;;16.96;97.06;100279.16;10135146;28;20511;-80
2023/08/04 17:51:36;;;;;;;3.55;2.45;;;;;;;19.86;100.00;100283.72;10133187;29;20045;-77
2023/08/04 17:56:40;;;;;;;1.25;0.98;;;;;;;23.25;100.00;100291.00;10145999;29;20056;-79
2023/08/04 18:01:43;;;;;;;3.28;1.20;;;;;;;20.90;100.00;100299.91;10140279;28;20060;-79
2023/08/04 18:06:46;;;;;;;2.20;1.35;;;;;;;19.44;100.00;100315.06;10137797;28;20056;-78
2023/08/04 18:11:50;;;;;;;5.43;1.85;;;;;;;17.65;96.19;100329.38;10132120;28;20051;-78
2023/08/04 18:16:53;;;;;;;1.88;1.75;;;;;;;17.02;99.36;100330.88;10130413;28;20079;-77
2023/08/04 18:21:57;;;;;;;2.78;2.03;;;;;;;16.82;100.00;100337.66;10136506;29;20090;-77
2023/08/04 18:27:01;;;;;;;4.65;2.15;;;;;;;16.63;98.80;100346.06;10148806;29;20057;-77
2023/08/04 18:32:07;;;;;;;6.47;2.10;;;;;;;16.52;99.51;100350.78;10143470;29;20068;-77
2023/08/04 18:37:10;;;;;;;3.30;2.20;;;;;;;16.44;100.00;100361.59;10141595;28;20689;-78
2023/08/04 18:42:15;;;;;;;4.22;1.80;;;;;;;16.25;100.00;100361.81;10146280;28;20063;-77
2023/08/04 18:47:18;;;;;;;3.70;2.10;;;;;;;16.21;100.00;100360.41;10141064;29;20072;-77
2023/08/04 18:52:21;;;;;;;4.55;2.42;;;;;;;16.30;100.00;100373.03;10144811;28;20527;-77
2023/08/04 18:57:25;;;;;;;3.15;2.67;;;;;;;16.29;100.00;100372.19;10140921;28;20082;-78
2023/08/04 19:02:28;;;;;;;3.78;2.42;;;;;;;16.23;98.98;100380.09;10136361;28;20055;-77
2023/08/04 19:07:31;;;;;;;3.78;2.53;;;;;;;16.00;99.29;100382.50;10138424;28;20059;-77
2023/08/04 19:12:35;;;;;;;4.53;2.70;;;;;;;15.88;98.55;100390.06;10143249;29;20052;-77
2023/08/04 19:17:38;;;;;;;2.58;2.35;;;;;;;15.66;99.87;100394.97;10140784;29;20052;-78
2023/08/04 19:22:41;;;;;;;3.00;2.47;;;;;;;15.75;98.66;100395.03;10135833;29;20056;-78
2023/08/04 19:27:45;;;;;;;3.33;2.63;;;;;;;15.36;98.88;100398.06;10142446;28;20047;-77
2023/08/04 19:32:48;;;;;;;5.68;3.10;;;;;;;15.55;99.12;100399.75;10141682;28;20051;-77
2023/08/04 19:37:51;;;;;;;3.88;2.45;;;;;;;15.52;98.22;100397.38;10133493;28;20047;-76
2023/08/04 19:42:55;;;;;;;4.70;2.65;;;;;;;15.50;99.13;100389.41;10133573;29;20058;-77
2023/08/04 19:47:58;;;;;;;3.08;2.78;;;;;;;15.42;98.60;100395.59;10148013;28;20055;-76
2023/08/04 19:53:01;;;;;;;3.47;3.17;;;;;;;15.29;98.43;100386.16;10164850;29;20100;-76
2023/08/04 19:58:05;;;;;;;4.43;3.40;;;;;;;15.23;98.48;100398.44;10142600;28;20166;-78
2023/08/04 20:03:08;;;;;;;4.60;3.40;;;;;;;15.24;98.12;100397.44;10133839;29;20136;-78
2023/08/04 20:08:11;;;;;;;3.67;3.38;;;;;;;15.06;97.45;100394.72;10132421;28;20062;-77
2023/08/04 20:13:16;;;;;;;5.93;4.55;;;;;;;15.17;98.20;100394.50;10128426;29;20052;-78
2023/08/04 20:18:20;;;;;;;6.32;5.70;;;;;;;15.19;97.77;100403.31;10139383;29;20151;-78
2023/08/04 20:23:23;;;;;;;5.38;4.97;;;;;;;15.09;97.99;100397.13;10129939;28;20059;-77
2023/08/04 20:28:27;;;;;;;5.10;4.63;;;;;;;15.00;97.89;100409.72;10126082;28;20052;-77
2023/08/04 20:33:30;;;;;;;7.30;4.90;;;;;;;15.02;98.60;100409.53;10124587;29;20048;-77
2023/08/04 20:38:35;;;;;;;4.22;3.78;;;;;;;15.09;98.53;100412.50;10120534;29;20059;-77
2023/08/04 20:43:42;;;;;;;7.85;4.60;;;;;;;15.02;98.05;100425.78;10126358;29;20049;-78
2023/08/04 20:48:44;;;;;;;4.13;3.67;;;;;;;14.99;98.50;100420.69;10123011;28;20044;-78
2023/08/04 20:53:47;;;;;;;4.53;4.13;;;;;;;15.01;97.95;100426.78;10118200;28;20048;-76
2023/08/04 20:58:52;;;;;;;6.03;4.43;;;;;;;14.87;97.65;100430.00;10130677;29;20052;-77
2023/08/04 21:03:55;;;;;;;5.32;4.25;;;;;;;14.86;98.33;100433.69;10146225;29;20508;-77
2023/08/04 21:08:58;;;;;;;6.40;4.45;;;;;;;14.76;96.87;100442.72;10133891;29;20043;-76
2023/08/04 21:14:02;;;;;;;4.82;3.90;;;;;;;14.63;97.43;100455.75;10137107;29;20523;-76
2023/08/04 21:19:05;;;;;;;6.30;4.03;;;;;;;14.52;97.02;100466.75;10129024;28;20376;-77
2023/08/04 21:24:08;;;;;;;4.90;3.47;;;;;;;14.58;97.42;100485.06;10117601;28;20044;-76
2023/08/04 21:29:13;;;;;;;3.75;3.45;;;;;;;14.53;97.22;100492.75;10117932;29;20049;-77
2023/08/04 21:34:16;;;;;;;8.13;3.88;;;;;;;14.37;96.98;100491.50;10125718;29;20051;-79
2023/08/04 21:39:19;;;;;;;5.70;5.20;;;;;;;14.16;96.97;100494.41;10117854;29;20071;-77
2023/08/04 21:44:23;;;;;;;6.13;5.55;;;;;;;14.28;97.27;100503.19;10119197;28;20506;-77
2023/08/04 21:49:26;;;;;;;6.80;4.90;;;;;;;14.41;98.00;100499.34;10125426;28;20059;-78
2023/08/04 21:54:30;;;;;;;8.00;5.30;;;;;;;14.61;97.91;100500.97;10127765;29;20063;-79
2023/08/04 21:59:34;;;;;;;6.25;5.60;;;;;;;14.73;97.47;100493.56;10138190;29;20079;-78
2023/08/04 22:04:37;;;;;;;7.38;4.68;;;;;;;14.70;96.89;100508.22;10155786;29;20056;-77
2023/08/04 22:09:40;;;;;;;7.15;4.57;;;;;;;14.76;98.11;100504.06;10169346;29;20052;-79
2023/08/04 22:14:44;;;;;;;6.72;4.80;;;;;;;14.77;97.57;100511.19;10132357;28;20055;-78
2023/08/04 22:19:47;;;;;;;6.32;5.30;;;;;;;14.69;97.06;100509.22;10131712;29;20052;-77
2023/08/04 22:24:49;;;;;;;5.25;4.70;;;;;;;14.64;97.47;100506.09;10130497;29;20524;-79
2023/08/04 22:29:53;;;;;;;5.68;4.57;;;;;;;14.48;96.25;100511.25;10127179;29;20491;-79
2023/08/04 22:34:57;;;;;;;5.60;4.47;;;;;;;14.37;96.59;100502.31;10125085;29;20208;-78
2023/08/04 22:40:00;;;;;;;5.53;4.30;;;;;;;14.43;96.94;100505.47;10127248;28;20052;-78
2023/08/04 22:45:05;;;;;;;4.72;3.70;;;;;;;14.42;97.03;100510.00;10129852;29;20135;-78
2023/08/04 22:50:08;;;;;;;7.80;4.65;;;;;;;14.36;96.98;100514.13;10126019;29;20072;-78
2023/08/04 22:55:11;;;;;;;4.30;3.90;;;;;;;14.30;96.73;100513.84;10139136;29;20052;-79
2023/08/04 23:00:15;;;;;;;4.25;3.83;;;;;;;14.29;96.72;100523.81;10130476;29;20131;-79
2023/08/04 23:05:19;;;;;;;5.10;4.00;;;;;;;14.17;96.73;100524.97;10137588;28;20059;-77
2023/08/04 23:10:22;;;;;;;8.40;4.47;;;;;;;13.94;95.77;100519.03;10163772;29;20055;-79
2023/08/04 23:15:26;;;;;;;5.35;4.82;;;;;;;13.91;95.70;100522.84;10131106;29;20160;-80
2023/08/04 23:20:29;;;;;;;7.50;5.53;;;;;;;13.68;96.22;100516.88;10128018;29;20058;-80